Time;durP1;ratioP1;P1;durP2;ratioP2;P2;SDS_P1;SDS_P2;PMS_P1;PMS_P2;Temp;Humidity;BMP_temperature;BMP_pressure;BME280_temperature;BME280_humidity;BME280_pressure;Samples;Min_cycle;Max_cycle;Signal;HPM_P1;HPM_P2
2023/06/21 00:01:35;;;;;;;13.48;12.07;;;20.50;73.50;;;;;;5072444;28;20028;-81
2023/06/21 00:04:01;;;;;;;13.25;11.85;;;20.50;74.50;;;;;;5073867;28;20017;-81
2023/06/21 00:06:31;;;;;;;16.10;13.10;;;20.40;75.20;;;;;;5072290;28;20029;-80
2023/06/21 00:08:57;;;;;;;14.05;12.65;;;20.40;76.20;;;;;;5072301;28;20019;-80
2023/06/21 00:11:23;;;;;;;13.10;11.90;;;20.40;76.40;;;;;;5073564;28;20095;-80
2023/06/21 00:13:49;;;;;;;16.92;13.15;;;20.40;76.20;;;;;;5072300;28;20024;-80
2023/06/21 00:16:14;;;;;;;14.68;13.05;;;20.30;76.50;;;;;;5072130;28;20037;-80
2023/06/21 00:18:40;;;;;;;14.00;12.60;;;20.30;76.00;;;;;;5073701;28;20028;-80
2023/06/21 00:21:06;;;;;;;15.45;12.48;;;20.40;76.30;;;;;;5072556;28;20393;-80
2023/06/21 00:23:32;;;;;;;14.32;12.82;;;20.40;76.40;;;;;;5072250;28;20020;-80
2023/06/21 00:25:57;;;;;;;14.25;12.77;;;20.40;77.10;;;;;;5072416;28;20040;-80
2023/06/21 00:28:23;;;;;;;14.10;12.63;;;20.40;77.20;;;;;;5072233;28;20060;-80
2023/06/21 00:30:49;;;;;;;13.20;11.80;;;20.40;77.70;;;;;;5072090;28;20099;-81
2023/06/21 00:33:14;;;;;;;14.15;12.60;;;20.40;77.00;;;;;;5073237;28;20020;-80
2023/06/21 00:35:40;;;;;;;14.70;13.20;;;20.40;77.50;;;;;;5072093;28;20397;-80
2023/06/21 00:38:06;;;;;;;14.43;12.93;;;20.50;77.90;;;;;;5073254;28;20494;-80
2023/06/21 00:40:31;;;;;;;15.15;13.57;;;20.50;79.40;;;;;;5073214;28;20032;-80
2023/06/21 00:42:57;;;;;;;13.98;12.48;;;20.50;81.40;;;;;;5073426;28;20033;-81
2023/06/21 00:45:23;;;;;;;13.23;12.02;;;20.50;81.80;;;;;;5073539;28;20109;-81
2023/06/21 00:47:49;;;;;;;14.80;13.18;;;20.50;80.00;;;;;;5071897;28;20052;-81
2023/06/21 00:50:15;;;;;;;13.68;12.23;;;20.40;80.90;;;;;;5072058;28;20554;-81
2023/06/21 00:52:43;;;;;;;14.35;12.90;;;20.50;80.90;;;;;;5073021;28;20017;-81
2023/06/21 00:55:09;;;;;;;15.05;13.55;;;20.50;79.00;;;;;;5073384;28;20009;-81
2023/06/21 00:57:36;;;;;;;13.70;12.40;;;20.50;78.30;;;;;;5072916;28;20017;-80
2023/06/21 01:00:02;;;;;;;14.82;13.32;;;20.50;78.50;;;;;;5071608;28;20062;-79
2023/06/21 01:02:28;;;;;;;13.98;12.50;;;20.50;79.20;;;;;;5072889;28;20059;-79
2023/06/21 01:04:53;;;;;;;15.85;12.77;;;20.50;79.40;;;;;;5073002;28;20024;-79
2023/06/21 01:07:47;;;;;;;15.65;13.50;;;20.50;81.60;;;;;;5088083;28;20028;-79
2023/06/21 01:10:18;;;;;;;14.50;13.10;;;20.50;82.20;;;;;;5097331;28;20035;-79
2023/06/21 01:13:28;;;;;;;13.73;12.32;;;20.50;80.80;;;;;;5097623;28;20462;-79
2023/06/21 01:16:17;;;;;;;13.45;12.05;;;20.40;80.90;;;;;;5097555;28;20382;-79
2023/06/21 01:18:46;;;;;;;14.77;13.23;;;20.40;80.30;;;;;;5097129;28;20024;-79
2023/06/21 01:21:18;;;;;;;15.18;13.55;;;20.40;79.60;;;;;;5097190;28;20401;-79
2023/06/21 01:24:06;;;;;;;14.10;12.73;;;20.30;81.30;;;;;;5095730;28;20027;-79
2023/06/21 01:26:38;;;;;;;16.42;13.95;;;20.30;83.60;;;;;;5096955;28;20065;-79
2023/06/21 01:29:11;;;;;;;15.70;13.83;;;20.30;83.70;;;;;;5097088;28;20024;-78
2023/06/21 01:31:39;;;;;;;14.95;13.43;;;20.30;83.40;;;;;;5096971;28;20728;-79
2023/06/21 01:34:04;;;;;;;15.48;13.65;;;20.20;84.50;;;;;;5096709;28;20385;-78
2023/06/21 01:36:31;;;;;;;13.52;12.23;;;20.20;85.50;;;;;;5096908;28;20034;-79
2023/06/21 01:38:57;;;;;;;13.73;12.32;;;20.20;85.60;;;;;;5096981;28;20036;-79
2023/06/21 01:41:26;;;;;;;14.30;13.00;;;20.10;84.50;;;;;;5095472;28;20099;-79
2023/06/21 01:43:53;;;;;;;15.32;13.73;;;20.10;86.10;;;;;;5095432;28;20039;-79
2023/06/21 01:46:22;;;;;;;14.98;13.38;;;20.10;86.00;;;;;;5095431;28;20047;-79
2023/06/21 01:48:48;;;;;;;14.85;13.45;;;20.00;86.20;;;;;;5095372;28;20075;-79
2023/06/21 01:51:15;;;;;;;17.60;13.82;;;20.00;85.70;;;;;;5095238;28;20073;-79
2023/06/21 01:53:41;;;;;;;14.48;12.95;;;20.00;87.40;;;;;;5095089;28;20020;-79
2023/06/21 01:56:11;;;;;;;19.15;14.20;;;20.00;89.00;;;;;;5096356;28;20074;-79
2023/06/21 01:58:37;;;;;;;16.10;14.43;;;19.90;87.20;;;;;;5096335;28;20069;-79
2023/06/21 02:01:02;;;;;;;15.55;14.00;;;19.90;86.70;;;;;;5095024;28;20436;-79
2023/06/21 02:03:30;;;;;;;15.38;13.75;;;19.80;89.30;;;;;;5096361;28;20493;-80
2023/06/21 02:05:58;;;;;;;15.07;13.57;;;19.80;90.90;;;;;;5095151;28;20103;-78
2023/06/21 02:08:25;;;;;;;16.23;14.60;;;19.70;92.20;;;;;;5096257;28;20020;-78
2023/06/21 02:10:51;;;;;;;14.65;13.23;;;19.60;94.20;;;;;;5094933;28;20024;-78
2023/06/21 02:13:17;;;;;;;15.52;13.95;;;19.60;94.60;;;;;;5094814;28;20401;-78
2023/06/21 02:15:42;;;;;;;17.20;15.40;;;19.50;94.90;;;;;;5095634;28;20020;-79
2023/06/21 02:18:12;;;;;;;17.75;14.25;;;19.50;94.40;;;;;;5094648;28;20016;-78
2023/06/21 02:20:38;;;;;;;18.30;13.82;;;19.40;95.70;;;;;;5094551;28;20039;-79
2023/06/21 02:23:04;;;;;;;17.02;14.32;;;19.30;96.70;;;;;;5095872;28;20469;-79
2023/06/21 02:25:30;;;;;;;16.42;14.63;;;19.30;96.50;;;;;;5095824;28;20020;-79
2023/06/21 02:27:56;;;;;;;17.13;14.25;;;19.20;95.40;;;;;;5094809;28;20081;-79
2023/06/21 02:30:22;;;;;;;15.73;14.13;;;19.20;95.90;;;;;;5094206;28;20024;-79
2023/06/21 02:32:47;;;;;;;16.35;14.65;;;19.10;96.60;;;;;;5095853;28;20028;-79
2023/06/21 02:35:13;;;;;;;18.58;15.27;;;19.00;99.20;;;;;;5091209;28;20044;-79
2023/06/21 02:37:39;;;;;;;15.93;13.18;;;19.00;99.90;;;;;;5075363;28;20139;-79
2023/06/21 02:40:11;;;;;;;16.02;14.43;;;18.90;99.90;;;;;;5074083;28;20021;-79
2023/06/21 02:42:37;;;;;;;16.05;14.15;;;18.90;99.90;;;;;;5075466;28;20029;-79
2023/06/21 02:45:03;;;;;;;15.27;13.68;;;18.90;99.90;;;;;;5073876;28;20020;-78
2023/06/21 02:47:29;;;;;;;16.27;14.57;;;18.90;99.90;;;;;;5074999;28;20053;-79
2023/06/21 02:49:55;;;;;;;16.80;15.00;;;18.90;99.90;;;;;;5075311;28;20470;-78
2023/06/21 02:52:21;;;;;;;17.55;15.60;;;18.80;99.90;;;;;;5074983;28;20109;-78
2023/06/21 02:54:46;;;;;;;16.17;13.18;;;18.70;99.90;;;;;;5074098;28;20028;-79
2023/06/21 02:57:12;;;;;;;17.48;15.38;;;18.70;99.90;;;;;;5073847;28;20052;-80
2023/06/21 02:59:37;;;;;;;18.60;15.52;;;18.70;99.90;;;;;;5074995;28;20066;-80
2023/06/21 03:02:03;;;;;;;17.02;15.15;;;18.60;99.90;;;;;;5073529;28;20036;-81
2023/06/21 03:04:30;;;;;;;18.13;14.63;;;18.60;99.90;;;;;;5074769;28;20478;-79
2023/06/21 03:06:56;;;;;;;16.85;15.07;;;18.60;99.90;;;;;;5073635;28;20016;-79
2023/06/21 03:09:23;;;;;;;16.58;14.93;;;18.60;99.90;;;;;;5074744;28;20025;-81
2023/06/21 03:11:48;;;;;;;16.55;14.85;;;18.50;99.90;;;;;;5073321;28;20434;-81
2023/06/21 03:14:14;;;;;;;17.08;15.40;;;18.50;99.90;;;;;;5073346;28;20106;-81
2023/06/21 03:16:41;;;;;;;19.02;15.45;;;18.50;99.90;;;;;;5073236;28;20028;-81
2023/06/21 03:19:08;;;;;;;17.95;15.38;;;18.50;99.90;;;;;;5074597;28;20432;-80
2023/06/21 03:21:34;;;;;;;24.08;15.77;;;18.60;99.90;;;;;;5073563;28;20406;-81
2023/06/21 03:24:00;;;;;;;17.30;15.50;;;18.60;99.90;;;;;;5074587;28;20027;-80
2023/06/21 03:26:26;;;;;;;18.60;15.70;;;18.50;99.90;;;;;;5074500;28;20078;-80
2023/06/21 03:28:53;;;;;;;17.13;15.32;;;18.60;99.90;;;;;;5072461;28;20029;-81
2023/06/21 03:31:20;;;;;;;18.30;15.57;;;18.50;99.90;;;;;;5073130;28;20055;-81
2023/06/21 03:33:45;;;;;;;17.63;15.60;;;18.50;99.90;;;;;;5072994;28;20390;-80
2023/06/21 03:36:11;;;;;;;17.85;15.95;;;18.50;99.90;;;;;;5074302;28;20025;-81
2023/06/21 03:38:36;;;;;;;21.48;15.95;;;18.40;99.90;;;;;;5074297;28;20442;-81
2023/06/21 03:41:02;;;;;;;18.27;15.27;;;18.50;99.90;;;;;;5072798;28;20040;-81
2023/06/21 03:43:28;;;;;;;18.80;15.70;;;18.50;99.90;;;;;;5074316;28;20098;-81
2023/06/21 03:45:53;;;;;;;17.40;15.68;;;18.50;99.90;;;;;;5073224;28;20046;-80
2023/06/21 03:48:19;;;;;;;20.92;15.95;;;18.50;99.90;;;;;;5074135;28;20044;-81
2023/06/21 03:50:44;;;;;;;17.85;15.95;;;18.60;99.90;;;;;;5072786;28;20025;-80
2023/06/21 03:53:10;;;;;;;17.85;15.95;;;18.70;99.90;;;;;;5072666;28;20450;-81
2023/06/21 03:55:37;;;;;;;20.13;15.20;;;18.80;99.90;;;;;;5088000;28;20030;-81
2023/06/21 03:58:02;;;;;;;20.38;15.60;;;19.10;99.90;;;;;;5094082;28;20413;-80
2023/06/21 04:00:28;;;;;;;17.17;15.38;;;19.40;99.90;;;;;;5093969;28;20028;-79
2023/06/21 04:02:54;;;;;;;16.52;14.57;;;19.60;99.90;;;;;;5094055;28;20043;-80
2023/06/21 04:05:20;;;;;;;19.52;15.25;;;19.90;99.90;;;;;;5093993;28;20099;-80
2023/06/21 04:07:46;;;;;;;18.65;15.23;;;20.10;99.90;;;;;;5092877;28;20477;-80
2023/06/21 04:10:13;;;;;;;17.02;15.23;;;20.30;99.90;;;;;;5094142;28;20012;-81
2023/06/21 04:12:39;;;;;;;17.30;15.15;;;20.40;99.90;;;;;;5091759;28;20095;-81
2023/06/21 04:15:05;;;;;;;16.98;14.25;;;20.70;99.90;;;;;;5073733;28;20024;-81
2023/06/21 04:17:31;;;;;;;20.10;15.52;;;20.90;97.20;;;;;;5072160;28;20047;-81
2023/06/21 04:19:57;;;;;;;17.38;15.10;;;21.10;96.30;;;;;;5073622;28;20025;-81
2023/06/21 04:22:23;;;;;;;16.55;14.95;;;21.40;95.20;;;;;;5072161;28;20082;-81
2023/06/21 04:24:49;;;;;;;16.63;14.93;;;21.70;93.50;;;;;;5072166;28;20025;-81
2023/06/21 04:27:15;;;;;;;16.17;14.52;;;22.00;94.10;;;;;;5073276;28;20044;-81
2023/06/21 04:29:41;;;;;;;16.75;14.85;;;22.10;94.60;;;;;;5073381;28;20024;-81
2023/06/21 04:32:10;;;;;;;16.65;14.52;;;22.10;95.10;;;;;;5075876;28;20428;-81
2023/06/21 04:34:36;;;;;;;16.48;14.88;;;22.20;96.90;;;;;;5073167;28;20029;-81
2023/06/21 04:37:05;;;;;;;16.02;14.52;;;22.30;99.90;;;;;;5071749;28;20025;-82
2023/06/21 04:39:31;;;;;;;16.15;14.23;;;22.50;99.60;;;;;;5071946;28;20021;-81
2023/06/21 04:42:00;;;;;;;16.00;13.77;;;22.60;97.90;;;;;;5071734;28;20040;-81
2023/06/21 04:44:27;;;;;;;15.93;14.13;;;22.70;96.50;;;;;;5072461;28;20421;-81
2023/06/21 04:46:54;;;;;;;16.52;14.88;;;22.90;92.70;;;;;;5072967;28;20078;-81
2023/06/21 04:49:19;;;;;;;14.93;13.32;;;23.10;85.90;;;;;;5071797;28;20111;-82
2023/06/21 04:51:45;;;;;;;15.07;13.23;;;23.10;85.00;;;;;;5072967;28;20056;-81
2023/06/21 04:54:11;;;;;;;15.43;13.82;;;23.20;81.60;;;;;;5071820;28;20035;-81
2023/06/21 04:56:36;;;;;;;16.42;13.93;;;23.30;79.30;;;;;;5073043;28;20027;-82
2023/06/21 04:59:03;;;;;;;16.55;13.70;;;23.30;79.20;;;;;;5071245;28;20498;-81
2023/06/21 05:01:30;;;;;;;14.90;13.40;;;23.40;77.70;;;;;;5071513;28;20032;-81
2023/06/21 05:03:56;;;;;;;16.58;14.90;;;23.40;76.90;;;;;;5074791;28;20107;-80
2023/06/21 05:06:25;;;;;;;15.30;13.70;;;23.40;77.50;;;;;;5089268;28;20056;-79
2023/06/21 05:08:51;;;;;;;15.52;13.80;;;23.40;78.70;;;;;;5082404;28;20028;-80
2023/06/21 05:11:18;;;;;;;15.98;14.32;;;23.40;77.80;;;;;;5082211;28;20021;-80
2023/06/21 05:13:44;;;;;;;15.18;13.57;;;23.30;78.00;;;;;;5071910;28;20036;-80
2023/06/21 05:16:10;;;;;;;52.45;19.20;;;23.40;80.00;;;;;;5072898;28;20382;-80
2023/06/21 05:18:35;;;;;;;16.10;14.18;;;23.40;81.00;;;;;;5071356;28;20024;-80
2023/06/21 05:21:01;;;;;;;15.77;13.82;;;23.40;80.70;;;;;;5072628;28;20550;-80
2023/06/21 05:23:27;;;;;;;20.60;14.63;;;23.50;79.40;;;;;;5071343;28;20485;-80
2023/06/21 05:25:53;;;;;;;16.50;14.48;;;23.60;79.30;;;;;;5072826;28;20033;-80
2023/06/21 05:28:18;;;;;;;19.83;15.27;;;23.60;79.70;;;;;;5072146;28;20024;-80
2023/06/21 05:30:44;;;;;;;16.30;14.60;;;23.80;81.50;;;;;;5074060;28;20033;-81
2023/06/21 05:33:10;;;;;;;17.95;15.32;;;23.90;79.50;;;;;;5077739;28;20024;-80
2023/06/21 05:35:35;;;;;;;17.55;15.10;;;24.00;78.70;;;;;;5075201;28;20099;-81
2023/06/21 05:38:01;;;;;;;61.33;18.83;;;24.10;78.90;;;;;;5090036;28;20071;-81
2023/06/21 05:40:27;;;;;;;42.95;18.85;;;24.10;79.60;;;;;;5080875;28;20496;-82
2023/06/21 05:42:52;;;;;;;20.98;15.77;;;24.20;78.70;;;;;;5079807;28;20028;-81
2023/06/21 05:45:20;;;;;;;21.17;15.10;;;24.30;78.50;;;;;;5081754;28;20024;-82
2023/06/21 05:47:45;;;;;;;18.10;14.95;;;24.30;80.70;;;;;;5082984;28;20129;-82
2023/06/21 05:50:11;;;;;;;20.58;14.30;;;24.40;78.20;;;;;;5089011;28;20024;-81
2023/06/21 05:52:37;;;;;;;23.60;14.77;;;24.40;77.90;;;;;;5077941;28;20028;-82
2023/06/21 05:55:03;;;;;;;18.20;15.05;;;24.50;77.50;;;;;;5082777;28;20097;-82
2023/06/21 05:57:29;;;;;;;32.75;16.48;;;24.40;74.50;;;;;;5080848;28;20028;-82
2023/06/21 05:59:55;;;;;;;17.80;14.82;;;24.50;75.20;;;;;;5077607;28;20580;-81
2023/06/21 06:02:21;;;;;;;19.98;14.88;;;24.50;74.80;;;;;;5073039;28;20090;-79
2023/06/21 06:04:48;;;;;;;18.05;14.80;;;24.60;75.00;;;;;;5079518;28;20405;-81
2023/06/21 06:07:13;;;;;;;20.85;15.18;;;24.70;75.50;;;;;;5090688;28;20027;-81
2023/06/21 06:09:39;;;;;;;18.52;15.98;;;24.90;75.80;;;;;;5086194;28;20025;-81
2023/06/21 06:12:05;;;;;;;19.73;16.17;;;24.90;75.00;;;;;;5075016;28;20110;-82
2023/06/21 06:14:31;;;;;;;16.85;14.30;;;25.00;75.40;;;;;;5075354;28;20118;-82
2023/06/21 06:16:57;;;;;;;21.05;16.08;;;25.00;74.00;;;;;;5075240;28;20056;-81
2023/06/21 06:19:22;;;;;;;17.77;16.08;;;25.10;73.70;;;;;;5074052;28;20021;-81
2023/06/21 06:21:48;;;;;;;18.98;16.60;;;25.10;74.30;;;;;;5072950;28;20044;-80
2023/06/21 06:24:14;;;;;;;18.90;15.93;;;25.20;74.00;;;;;;5073865;28;20016;-82
2023/06/21 06:26:39;;;;;;;24.98;15.77;;;25.30;75.30;;;;;;5085672;28;20016;-81
2023/06/21 06:29:05;;;;;;;29.00;16.08;;;25.30;74.10;;;;;;5085551;28;20012;-81
2023/06/21 06:31:31;;;;;;;22.83;16.30;;;25.40;73.90;;;;;;5073489;28;20107;-81
2023/06/21 06:33:56;;;;;;;17.83;15.93;;;25.50;74.70;;;;;;5074926;28;20381;-80
2023/06/21 06:36:22;;;;;;;46.75;18.85;;;25.60;73.90;;;;;;5074896;28;20021;-81
2023/06/21 06:38:52;;;;;;;21.13;16.77;;;25.80;75.30;;;;;;5073308;28;20024;-80
2023/06/21 06:41:18;;;;;;;17.92;16.25;;;25.80;74.40;;;;;;5075080;28;20577;-81
2023/06/21 06:43:44;;;;;;;19.42;15.65;;;25.90;73.20;;;;;;5074092;28;20078;-81
2023/06/21 06:46:10;;;;;;;18.77;15.98;;;25.90;73.10;;;;;;5073511;28;20020;-80
2023/06/21 06:48:35;;;;;;;21.48;14.98;;;26.00;73.90;;;;;;5073443;28;20057;-80
2023/06/21 06:51:02;;;;;;;21.83;16.60;;;26.20;70.60;;;;;;5074650;28;20076;-81
2023/06/21 06:53:28;;;;;;;23.58;14.15;;;26.30;71.50;;;;;;5088354;28;20051;-80
2023/06/21 06:55:55;;;;;;;18.55;13.80;;;26.60;70.20;;;;;;5094893;28;20095;-81
2023/06/21 06:58:21;;;;;;;14.07;12.32;;;26.70;66.10;;;;;;5087069;28;20017;-81
2023/06/21 07:00:48;;;;;;;15.07;12.30;;;26.90;63.80;;;;;;5083262;28;20028;-81
2023/06/21 07:03:13;;;;;;;13.77;12.45;;;27.10;61.90;;;;;;5094551;28;20028;-81
2023/06/21 07:05:45;;;;;;;14.82;11.80;;;27.40;62.20;;;;;;5094376;28;20020;-81
2023/06/21 07:08:11;;;;;;;14.07;11.98;;;27.50;61.30;;;;;;5083600;28;20103;-81
2023/06/21 07:10:38;;;;;;;13.82;12.40;;;27.50;62.10;;;;;;5074280;28;20458;-81
2023/06/21 07:13:04;;;;;;;13.43;12.13;;;27.40;61.80;;;;;;5072079;28;20027;-81
2023/06/21 07:15:30;;;;;;;12.65;11.50;;;27.40;61.70;;;;;;5072772;28;20563;-81
2023/06/21 07:17:56;;;;;;;13.43;11.95;;;27.60;61.00;;;;;;5071053;28;20050;-81
2023/06/21 07:20:22;;;;;;;13.90;12.00;;;27.80;60.00;;;;;;5069457;28;20027;-81
2023/06/21 07:22:47;;;;;;;15.13;13.10;;;28.10;60.90;;;;;;5073601;28;20393;-80
2023/06/21 07:25:14;;;;;;;15.60;14.05;;;28.20;59.10;;;;;;5070425;28;20024;-82
2023/06/21 07:27:40;;;;;;;15.63;12.93;;;28.40;58.70;;;;;;5072129;28;20013;-82
2023/06/21 07:30:06;;;;;;;14.00;12.07;;;28.50;58.00;;;;;;5071003;28;20031;-82
2023/06/21 07:32:33;;;;;;;14.88;13.43;;;28.70;58.50;;;;;;5069776;28;20074;-80
2023/06/21 07:34:59;;;;;;;16.63;13.13;;;28.80;58.30;;;;;;5071019;28;20027;-80
2023/06/21 07:37:26;;;;;;;13.32;12.00;;;29.00;58.70;;;;;;5070098;28;20021;-82
2023/06/21 07:39:52;;;;;;;17.17;12.38;;;29.10;56.60;;;;;;5069417;28;20012;-80
2023/06/21 07:42:17;;;;;;;15.35;12.77;;;29.30;56.20;;;;;;5070018;28;20111;-82
2023/06/21 07:44:43;;;;;;;16.42;12.90;;;29.30;56.60;;;;;;5071111;28;20017;-80
2023/06/21 07:47:09;;;;;;;14.02;12.00;;;29.60;56.70;;;;;;5071887;28;20024;-80
2023/06/21 07:49:34;;;;;;;15.05;11.85;;;29.70;56.10;;;;;;5073365;28;20032;-82
2023/06/21 07:52:00;;;;;;;16.42;12.13;;;29.90;55.50;;;;;;5073883;28;20021;-82
2023/06/21 07:54:26;;;;;;;13.55;12.10;;;30.10;54.80;;;;;;5072865;28;20020;-80
2023/06/21 07:56:51;;;;;;;14.30;12.73;;;30.20;54.70;;;;;;5073210;28;20036;-81
2023/06/21 07:59:17;;;;;;;16.33;12.20;;;30.30;55.10;;;;;;5074332;28;20028;-80
2023/06/21 08:01:42;;;;;;;14.50;11.38;;;30.40;54.70;;;;;;5073987;28;20028;-82
2023/06/21 08:04:08;;;;;;;12.15;10.95;;;30.50;54.50;;;;;;5074070;28;20054;-81
2023/06/21 08:06:34;;;;;;;12.02;10.82;;;30.50;53.60;;;;;;5074053;28;20070;-82
2023/06/21 08:08:59;;;;;;;11.65;10.65;;;30.50;52.70;;;;;;5073358;28;20025;-83
2023/06/21 08:11:25;;;;;;;12.77;11.55;;;30.60;52.30;;;;;;5074214;28;20016;-82
2023/06/21 08:13:50;;;;;;;14.85;11.30;;;30.70;51.20;;;;;;5073455;28;20064;-80
2023/06/21 08:16:16;;;;;;;12.57;11.27;;;30.80;50.20;;;;;;5073771;28;20048;-81
2023/06/21 08:18:43;;;;;;;13.32;11.45;;;30.60;51.40;;;;;;5072439;28;20036;-81
2023/06/21 08:21:09;;;;;;;12.02;10.82;;;30.80;52.50;;;;;;5072521;28;20028;-81
2023/06/21 08:23:34;;;;;;;15.25;11.90;;;30.90;51.70;;;;;;5074161;28;20028;-82
2023/06/21 08:26:00;;;;;;;16.02;11.02;;;30.70;51.00;;;;;;5072713;28;20409;-81
2023/06/21 08:28:25;;;;;;;11.68;10.55;;;30.80;51.40;;;;;;5073618;28;20485;-81
2023/06/21 08:30:51;;;;;;;11.95;10.75;;;30.70;50.80;;;;;;5072262;28;20044;-79
2023/06/21 08:33:17;;;;;;;11.60;10.40;;;30.90;50.20;;;;;;5073644;28;20025;-81
2023/06/21 08:35:43;;;;;;;12.48;9.70;;;31.10;52.30;;;;;;5072572;28;20048;-81
2023/06/21 08:38:08;;;;;;;10.52;9.52;;;31.10;51.40;;;;;;5073736;28;20032;-80
2023/06/21 08:40:37;;;;;;;13.05;10.98;;;31.30;51.40;;;;;;5073513;28;20410;-79
2023/06/21 08:43:03;;;;;;;11.55;10.10;;;31.20;51.00;;;;;;5073456;28;20025;-81
2023/06/21 08:45:29;;;;;;;15.48;11.32;;;31.20;50.80;;;;;;5072385;28;20474;-80
2023/06/21 08:48:02;;;;;;;12.50;10.63;;;31.10;50.50;;;;;;5072280;28;20058;-79
2023/06/21 08:50:29;;;;;;;11.38;10.38;;;31.10;49.80;;;;;;5073729;28;20051;-80
2023/06/21 08:52:59;;;;;;;10.32;9.43;;;31.10;49.70;;;;;;5073612;28;20104;-79
2023/06/21 08:55:25;;;;;;;14.00;10.63;;;30.90;49.20;;;;;;5073460;28;20028;-80
2023/06/21 08:57:56;;;;;;;10.30;9.50;;;30.70;49.90;;;;;;5072083;28;20134;-80
2023/06/21 09:00:28;;;;;;;11.00;10.10;;;30.60;51.60;;;;;;5071923;28;20032;-79
2023/06/21 09:03:03;;;;;;;10.82;9.93;;;30.40;51.50;;;;;;5072355;28;20035;-79
2023/06/21 09:05:42;;;;;;;10.90;9.85;;;30.60;52.10;;;;;;5072124;28;20059;-79
2023/06/21 09:08:08;;;;;;;10.25;9.25;;;30.60;51.80;;;;;;5073215;28;20377;-81
2023/06/21 09:10:36;;;;;;;11.02;9.80;;;30.70;51.70;;;;;;5071922;28;20020;-79
2023/06/21 09:13:03;;;;;;;10.75;9.77;;;30.50;52.90;;;;;;5071810;28;20124;-81
2023/06/21 09:15:29;;;;;;;11.13;10.13;;;30.50;53.50;;;;;;5073218;28;20381;-81
2023/06/21 09:17:56;;;;;;;10.68;9.65;;;30.20;53.50;;;;;;5073200;28;20028;-79
2023/06/21 09:20:27;;;;;;;10.02;9.20;;;30.00;54.60;;;;;;5073137;28;20399;-79
2023/06/21 09:22:55;;;;;;;11.88;10.38;;;30.20;55.30;;;;;;5073071;28;20033;-79
2023/06/21 09:25:20;;;;;;;12.45;10.30;;;30.10;55.20;;;;;;5073143;28;20025;-80
2023/06/21 09:27:46;;;;;;;11.73;10.52;;;30.20;55.50;;;;;;5076747;28;20389;-79
2023/06/21 09:30:14;;;;;;;10.95;9.48;;;30.20;54.60;;;;;;5077142;28;20323;-79
2023/06/21 09:32:40;;;;;;;12.35;10.40;;;30.50;54.50;;;;;;5077305;28;20021;-79
2023/06/21 09:35:06;;;;;;;11.00;9.85;;;30.70;53.60;;;;;;5075650;28;20023;-81
2023/06/21 09:37:32;;;;;;;14.38;10.05;;;30.90;53.00;;;;;;5075454;28;20020;-81
2023/06/21 09:39:57;;;;;;;12.27;10.43;;;31.10;52.50;;;;;;5076629;28;20021;-79
2023/06/21 09:42:25;;;;;;;11.45;10.32;;;31.20;52.20;;;;;;5076388;28;20398;-81
2023/06/21 09:44:52;;;;;;;12.02;10.65;;;31.10;52.20;;;;;;5076992;28;20489;-79
2023/06/21 09:47:18;;;;;;;11.30;10.27;;;30.70;53.30;;;;;;5075237;28;20040;-81
2023/06/21 09:49:47;;;;;;;12.18;9.88;;;30.70;52.50;;;;;;5078069;28;20082;-79
2023/06/21 09:52:22;;;;;;;12.60;10.45;;;30.60;52.40;;;;;;5075953;28;20027;-81
2023/06/21 09:54:47;;;;;;;12.55;10.60;;;30.50;52.20;;;;;;5075072;28;20031;-79
2023/06/21 09:57:13;;;;;;;14.68;11.13;;;30.50;52.70;;;;;;5076444;28;20107;-79
2023/06/21 09:59:40;;;;;;;11.30;10.10;;;30.40;53.80;;;;;;5076278;28;20025;-79
2023/06/21 10:02:07;;;;;;;11.77;10.40;;;30.50;53.90;;;;;;5076601;28;20037;-79
2023/06/21 10:04:41;;;;;;;14.32;11.35;;;30.50;53.30;;;;;;5076861;28;20031;-79
2023/06/21 10:07:07;;;;;;;11.77;10.77;;;30.50;54.10;;;;;;5076168;28;20115;-78
2023/06/21 10:09:37;;;;;;;11.73;10.73;;;30.50;54.70;;;;;;5076219;28;20080;-78
2023/06/21 10:12:04;;;;;;;11.32;10.20;;;30.60;53.30;;;;;;5074599;28;20074;-80
2023/06/21 10:14:30;;;;;;;11.68;10.55;;;30.40;53.80;;;;;;5076200;28;20025;-80
2023/06/21 10:16:57;;;;;;;13.48;12.07;;;30.30;55.40;;;;;;5076378;28;20019;-79
2023/06/21 10:19:25;;;;;;;12.73;11.52;;;30.20;55.10;;;;;;5075945;28;20023;-78
2023/06/21 10:22:04;;;;;;;14.15;12.10;;;30.00;55.60;;;;;;5074458;28;20025;-79
2023/06/21 10:24:40;;;;;;;13.90;12.43;;;29.90;55.40;;;;;;5076088;28;20025;-78
2023/06/21 10:27:06;;;;;;;14.90;13.48;;;29.80;56.30;;;;;;5074484;28;20023;-79
2023/06/21 10:29:33;;;;;;;18.55;13.50;;;29.50;57.10;;;;;;5074845;28;20086;-81
2023/06/21 10:32:01;;;;;;;14.88;12.57;;;29.30;58.60;;;;;;5076055;28;20020;-79
2023/06/21 10:34:30;;;;;;;21.45;14.20;;;29.30;58.70;;;;;;5074551;28;20032;-79
2023/06/21 10:37:09;;;;;;;13.90;12.48;;;29.20;59.50;;;;;;5075230;28;20012;-79
2023/06/21 10:39:34;;;;;;;17.38;12.98;;;29.10;59.90;;;;;;5086390;28;20028;-81
2023/06/21 10:42:01;;;;;;;13.93;12.45;;;29.00;60.80;;;;;;5075812;28;20123;-79
2023/06/21 10:44:30;;;;;;;15.90;12.68;;;28.70;61.10;;;;;;5073893;28;20024;-78
2023/06/21 10:46:57;;;;;;;20.10;13.48;;;28.60;61.80;;;;;;5073120;28;20028;-78
2023/06/21 10:49:25;;;;;;;14.30;12.88;;;28.50;62.90;;;;;;5075366;28;20483;-80
2023/06/21 10:51:52;;;;;;;15.43;12.98;;;28.30;62.70;;;;;;5075522;28;20012;-78
2023/06/21 10:54:19;;;;;;;14.85;13.35;;;28.30;64.70;;;;;;5073987;28;20158;-79
2023/06/21 10:56:45;;;;;;;14.98;13.38;;;28.20;66.20;;;;;;5074933;28;20036;-81
2023/06/21 10:59:11;;;;;;;17.00;14.85;;;27.80;67.70;;;;;;5074889;28;20496;-77
2023/06/21 11:01:37;;;;;;;20.17;14.90;;;27.70;70.90;;;;;;5073735;28;20036;-77
2023/06/21 11:04:04;;;;;;;15.98;14.48;;;27.60;73.80;;;;;;5075174;28;20462;-79
2023/06/21 11:06:34;;;;;;;16.67;14.93;;;27.50;76.00;;;;;;5073829;28;20031;-79
2023/06/21 11:09:09;;;;;;;17.55;14.50;;;27.50;78.40;;;;;;5073782;28;20024;-80
2023/06/21 11:11:40;;;;;;;19.65;16.25;;;27.50;81.50;;;;;;5073835;28;20020;-80
2023/06/21 11:14:06;;;;;;;18.02;15.73;;;27.50;83.60;;;;;;5073721;28;20029;-82
2023/06/21 11:16:39;;;;;;;18.23;15.70;;;27.50;80.80;;;;;;5074987;28;20031;-82
2023/06/21 11:19:07;;;;;;;17.00;14.32;;;27.40;79.40;;;;;;5074740;28;20111;-82
2023/06/21 11:21:42;;;;;;;20.13;16.30;;;27.40;80.00;;;;;;5074684;28;20044;-82
2023/06/21 11:24:10;;;;;;;17.98;16.17;;;27.20;81.70;;;;;;5074785;28;20020;-80
2023/06/21 11:27:01;;;;;;;18.48;16.23;;;27.00;83.80;;;;;;5073624;28;20474;-82
2023/06/21 11:29:36;;;;;;;17.05;15.35;;;26.70;86.60;;;;;;5073676;28;20442;-82
2023/06/21 11:32:15;;;;;;;17.98;15.43;;;26.10;85.40;;;;;;5073177;28;20470;-82
2023/06/21 11:34:51;;;;;;;18.65;15.98;;;25.80;89.80;;;;;;5073844;28;20028;-82
2023/06/21 11:37:40;;;;;;;20.48;15.00;;;25.50;94.60;;;;;;5073122;28;20115;-80
2023/06/21 11:40:24;;;;;;;21.10;15.65;;;25.30;99.10;;;;;;5073310;28;20027;-82
2023/06/21 11:42:52;;;;;;;19.75;17.65;;;25.10;99.90;;;;;;5073142;28;20412;-79
2023/06/21 11:45:32;;;;;;;20.33;17.92;;;25.00;99.90;;;;;;5073168;28;20046;-80
2023/06/21 11:48:08;;;;;;;21.33;19.02;;;25.00;99.90;;;;;;5073883;28;20382;-79
2023/06/21 11:50:43;;;;;;;21.15;18.95;;;25.10;99.90;;;;;;5074296;28;20024;-79
2023/06/21 11:53:20;;;;;;;21.45;18.80;;;25.10;99.90;;;;;;5072790;28;20567;-82
2023/06/21 11:55:48;;;;;;;20.80;18.52;;;25.00;99.90;;;;;;5072894;28;20398;-80
2023/06/21 11:58:14;;;;;;;23.15;20.73;;;25.00;99.90;;;;;;5072943;28;20028;-78
2023/06/21 12:00:41;;;;;;;21.23;18.45;;;25.10;99.90;;;;;;5072842;28;20059;-80
2023/06/21 12:03:09;;;;;;;20.77;18.60;;;25.10;99.90;;;;;;5073906;28;20565;-82
2023/06/21 12:05:52;;;;;;;21.00;18.92;;;25.10;99.90;;;;;;5073906;28;20039;-81
2023/06/21 12:08:20;;;;;;;21.42;19.23;;;25.30;99.90;;;;;;5074110;28;20485;-79
2023/06/21 12:10:46;;;;;;;24.35;20.55;;;25.60;99.90;;;;;;5072767;28;20023;-79
2023/06/21 12:13:16;;;;;;;23.45;20.60;;;25.90;99.90;;;;;;5073963;28;20021;-81
2023/06/21 12:15:46;;;;;;;23.55;20.38;;;26.10;99.90;;;;;;5072464;28;20058;-81
2023/06/21 12:18:12;;;;;;;22.20;19.85;;;26.40;99.90;;;;;;5072471;28;20023;-80
2023/06/21 12:20:38;;;;;;;23.90;20.27;;;26.80;99.90;;;;;;5073400;28;20028;-79
2023/06/21 12:23:08;;;;;;;23.50;21.15;;;27.00;99.90;;;;;;5073752;28;20059;-79
2023/06/21 12:25:44;;;;;;;23.52;18.73;;;27.30;99.90;;;;;;5072642;28;20020;-81
2023/06/21 12:28:12;;;;;;;20.40;18.23;;;27.50;93.00;;;;;;5072441;28;20071;-79
2023/06/21 12:30:46;;;;;;;19.23;17.13;;;27.60;96.00;;;;;;5072271;28;20036;-81